createdAt,value
2022-09-09T00:00:19.738Z,26.81
2022-09-09T00:03:14.483Z,26.81
2022-09-09T00:06:09.230Z,26.81
2022-09-09T00:09:05.210Z,26.83
2022-09-09T00:11:57.321Z,26.83
2022-09-09T00:14:50.884Z,26.85
2022-09-09T00:17:41.919Z,26.86
2022-09-09T00:20:32.935Z,26.90
2022-09-09T00:23:26.957Z,26.91
2022-09-09T00:26:21.852Z,26.91
2022-09-09T00:29:18.347Z,26.91
2022-09-09T00:32:15.058Z,26.93
2022-09-09T00:35:07.371Z,26.92
2022-09-09T00:37:58.544Z,26.93
2022-09-09T00:40:53.322Z,26.94
2022-09-09T00:43:43.848Z,26.94
2022-09-09T00:47:13.533Z,26.96
2022-09-09T00:50:03.464Z,26.97
2022-09-09T00:52:57.243Z,26.99
2022-09-09T00:55:51.279Z,27.01
2022-09-09T00:58:39.828Z,27.01
2022-09-09T01:01:29.698Z,27.00
2022-09-09T01:04:23.610Z,26.99
2022-09-09T01:07:18.671Z,27.00
2022-09-09T01:10:13.126Z,26.98
2022-09-09T01:13:03.984Z,26.99
2022-09-09T01:15:57.237Z,27.00
2022-09-09T01:18:52.202Z,26.99
2022-09-09T01:21:45.626Z,26.98
2022-09-09T01:24:41.472Z,26.98
2022-09-09T01:27:31.305Z,26.95
2022-09-09T01:30:20.951Z,26.94
2022-09-09T01:33:12.905Z,26.94
2022-09-09T01:36:02.528Z,26.92
2022-09-09T01:38:51.028Z,26.96
2022-09-09T01:41:39.950Z,26.95
2022-09-09T01:44:30.149Z,26.94
2022-09-09T01:47:18.977Z,26.92
2022-09-09T01:50:08.867Z,26.90
2022-09-09T01:53:00.792Z,26.89
2022-09-09T01:55:57.788Z,26.90
2022-09-09T01:58:54.772Z,26.92
2022-09-09T02:01:55.798Z,26.95
2022-09-09T02:04:47.638Z,26.96
2022-09-09T02:07:41.093Z,26.95
2022-09-09T02:10:33.770Z,26.96
2022-09-09T02:13:24.604Z,27.00
2022-09-09T02:16:16.224Z,26.99
2022-09-09T02:19:10.469Z,26.98
2022-09-09T02:22:00.989Z,26.96
2022-09-09T02:24:51.151Z,26.96
2022-09-09T02:27:40.127Z,26.97
2022-09-09T02:30:30.393Z,26.99
2022-09-09T02:33:18.961Z,26.98
2022-09-09T02:36:10.390Z,26.97
2022-09-09T02:38:58.930Z,26.98
2022-09-09T02:41:48.325Z,26.98
2022-09-09T02:44:38.082Z,26.99
2022-09-09T02:47:32.982Z,27.00
2022-09-09T02:50:25.846Z,26.99
2022-09-09T02:53:22.136Z,26.96
2022-09-09T02:56:12.773Z,26.96
2022-09-09T02:59:01.240Z,26.98
2022-09-09T03:01:49.883Z,26.94
2022-09-09T03:04:38.334Z,26.94
2022-09-09T03:07:28.419Z,26.96
2022-09-09T03:10:18.379Z,26.97
2022-09-09T03:13:07.300Z,26.99
2022-09-09T03:15:55.729Z,26.98
2022-09-09T03:18:46.627Z,26.99
2022-09-09T03:21:35.103Z,26.99
2022-09-09T03:24:23.714Z,27.02
2022-09-09T03:27:15.149Z,26.97
2022-09-09T03:30:04.725Z,26.95
2022-09-09T03:32:53.276Z,26.90
2022-09-09T03:35:42.300Z,26.87
2022-09-09T03:38:36.061Z,26.82
2022-09-09T03:41:25.019Z,26.82
2022-09-09T03:44:14.773Z,26.82
2022-09-09T03:47:03.250Z,26.86
2022-09-09T03:49:51.963Z,26.86
2022-09-09T03:52:41.736Z,26.86
2022-09-09T03:55:30.198Z,26.88
2022-09-09T03:58:22.350Z,26.88
2022-09-09T04:01:15.048Z,26.83
2022-09-09T04:04:05.195Z,26.82
2022-09-09T04:06:53.736Z,26.86
2022-09-09T04:09:42.319Z,26.88
2022-09-09T04:12:31.788Z,26.88
2022-09-09T04:15:20.243Z,26.90
2022-09-09T04:18:10.106Z,26.91
2022-09-09T04:20:59.129Z,26.90
2022-09-09T04:23:50.097Z,26.91
2022-09-09T04:26:39.109Z,26.92
2022-09-09T04:29:27.587Z,26.92
2022-09-09T04:32:16.091Z,26.92
2022-09-09T04:35:06.564Z,26.86
2022-09-09T04:37:55.040Z,26.87
2022-09-09T04:40:44.874Z,26.82
2022-09-09T04:43:33.348Z,26.83
2022-09-09T04:46:25.258Z,26.82
2022-09-09T04:49:15.353Z,26.81
2022-09-09T04:52:05.503Z,26.82
2022-09-09T04:54:55.683Z,26.83
2022-09-09T04:57:44.173Z,26.82
2022-09-09T05:00:32.631Z,26.82
2022-09-09T05:03:21.607Z,26.81
2022-09-09T05:06:11.825Z,26.82
2022-09-09T05:09:01.745Z,26.82
2022-09-09T05:11:50.196Z,26.81
2022-09-09T05:14:38.726Z,26.82
2022-09-09T05:17:27.197Z,26.79
2022-09-09T05:20:17.535Z,26.78
2022-09-09T05:23:06.471Z,26.80
2022-09-09T05:26:00.360Z,26.79
2022-09-09T05:28:49.231Z,26.77
2022-09-09T05:31:37.889Z,26.79
2022-09-09T05:34:26.326Z,26.78
2022-09-09T05:37:14.767Z,26.77
2022-09-09T05:40:04.100Z,26.75
2022-09-09T05:42:54.513Z,26.73
2022-09-09T05:45:43.492Z,26.72
2022-09-09T05:48:33.022Z,26.70
2022-09-09T05:51:23.368Z,26.73
2022-09-09T05:54:11.857Z,26.71
2022-09-09T05:57:00.276Z,26.68
2022-09-09T05:59:50.724Z,26.66
2022-09-09T06:02:40.050Z,26.60
2022-09-09T06:05:30.587Z,26.60
2022-09-09T06:08:19.140Z,26.59
2022-09-09T06:11:09.038Z,26.59
2022-09-09T06:13:57.484Z,26.57
2022-09-09T06:16:47.537Z,26.60
2022-09-09T06:19:36.006Z,26.63
2022-09-09T06:22:24.563Z,26.67
2022-09-09T06:25:13.476Z,26.70
2022-09-09T06:28:03.302Z,26.69
2022-09-09T06:31:00.585Z,26.71
2022-09-09T06:33:51.800Z,26.74
2022-09-09T06:36:41.186Z,26.71
2022-09-09T06:39:29.877Z,26.71
2022-09-09T06:42:18.774Z,26.68
2022-09-09T06:45:08.161Z,26.71
2022-09-09T06:47:58.566Z,26.72
2022-09-09T06:50:50.727Z,26.70
2022-09-09T06:53:40.243Z,26.71
2022-09-09T06:56:30.383Z,26.69
2022-09-09T06:59:18.794Z,26.72
2022-09-09T07:02:07.293Z,26.72
2022-09-09T07:04:55.799Z,26.72
2022-09-09T07:07:45.920Z,26.71
2022-09-09T07:10:35.252Z,26.71
2022-09-09T07:13:26.928Z,26.69
2022-09-09T07:16:17.275Z,26.72
2022-09-09T07:19:06.275Z,26.71
2022-09-09T07:21:54.757Z,26.71
2022-09-09T07:24:46.045Z,26.71
2022-09-09T07:27:34.520Z,26.72
2022-09-09T07:30:27.561Z,26.76
2022-09-09T07:33:16.464Z,26.73
2022-09-09T07:36:08.056Z,26.74
2022-09-09T07:38:58.674Z,26.76
2022-09-09T07:41:50.273Z,26.79
2022-09-09T07:44:40.531Z,26.79
2022-09-09T07:47:29.011Z,26.83
2022-09-09T07:50:17.425Z,26.86
2022-09-09T07:53:07.413Z,26.87
2022-09-09T07:55:56.812Z,26.91
2022-09-09T07:58:48.907Z,26.91
2022-09-09T08:01:41.181Z,26.94
2022-09-09T08:04:30.418Z,26.99
2022-09-09T08:07:18.836Z,27.00
2022-09-09T08:10:08.275Z,26.96
2022-09-09T08:13:16.685Z,26.95
2022-09-09T08:16:12.494Z,26.96
2022-09-09T08:19:01.226Z,26.95
2022-09-09T08:21:49.976Z,26.96
2022-09-09T08:24:38.534Z,26.96
2022-09-09T08:27:27.425Z,26.96
2022-09-09T08:30:16.049Z,26.98
2022-09-09T08:33:06.342Z,27.00
2022-09-09T08:35:54.793Z,27.01
2022-09-09T08:38:43.481Z,27.01
2022-09-09T08:41:44.293Z,27.04
2022-09-09T08:44:45.589Z,27.04
2022-09-09T08:47:42.384Z,27.06
2022-09-09T08:50:34.871Z,27.09
2022-09-09T08:53:26.750Z,27.06
2022-09-09T08:56:17.110Z,27.06
2022-09-09T08:59:06.131Z,27.06
2022-09-09T09:02:03.762Z,27.10
2022-09-09T09:05:03.412Z,27.08
2022-09-09T09:08:02.041Z,27.09
2022-09-09T09:10:51.997Z,27.11
2022-09-09T09:13:44.151Z,27.13
2022-09-09T09:16:37.496Z,27.13
2022-09-09T09:19:27.265Z,27.15
2022-09-09T09:22:21.043Z,27.14
2022-09-09T09:25:18.035Z,27.13
2022-09-09T09:28:13.474Z,27.16
2022-09-09T09:31:06.820Z,27.17
2022-09-09T09:33:56.610Z,27.14
2022-09-09T09:36:47.354Z,27.14
2022-09-09T09:42:54.402Z,27.14
2022-09-09T09:45:55.189Z,27.13
2022-09-09T09:48:59.250Z,27.10
2022-09-09T09:51:48.033Z,27.08
2022-09-09T09:54:40.155Z,27.10
2022-09-09T09:57:30.170Z,27.14
2022-09-09T10:00:21.961Z,27.17
2022-09-09T10:03:22.964Z,27.19
2022-09-09T10:06:11.507Z,27.21
2022-09-09T10:09:08.696Z,27.24
2022-09-09T10:12:04.762Z,27.27
2022-09-09T10:15:01.483Z,27.32
2022-09-09T10:17:57.545Z,27.39
2022-09-09T10:20:55.237Z,27.47
2022-09-09T10:24:00.518Z,27.53
2022-09-09T10:26:54.888Z,27.52
2022-09-09T10:29:53.862Z,27.55
2022-09-09T10:32:45.262Z,27.61
2022-09-09T10:35:37.818Z,27.68
2022-09-09T10:38:31.774Z,27.65
2022-09-09T10:41:22.453Z,27.66
2022-09-09T10:44:21.693Z,27.68
2022-09-09T10:47:28.329Z,27.73
2022-09-09T10:50:59.906Z,27.75
2022-09-09T10:53:51.699Z,27.78
2022-09-09T10:56:40.837Z,27.79
2022-09-09T10:59:31.963Z,27.80
2022-09-09T11:02:24.876Z,27.84
2022-09-09T11:05:17.856Z,27.81
2022-09-09T11:08:09.646Z,27.84
2022-09-09T11:11:04.849Z,27.90
2022-09-09T11:13:58.085Z,27.87
2022-09-09T11:16:51.283Z,27.92
2022-09-09T11:19:42.044Z,27.84
2022-09-09T11:22:34.740Z,27.74
2022-09-09T11:25:27.444Z,27.68
2022-09-09T11:28:32.193Z,27.72
2022-09-09T11:31:34.005Z,27.74
2022-09-09T11:34:34.436Z,27.71
2022-09-09T11:37:48.071Z,27.71
2022-09-09T11:40:36.543Z,27.66
2022-09-09T11:43:30.518Z,27.65
2022-09-09T11:46:20.716Z,27.62
2022-09-09T11:49:24.252Z,27.65
2022-09-09T11:52:23.721Z,27.62
2022-09-09T11:55:13.851Z,27.61
2022-09-09T11:58:02.997Z,27.59
2022-09-09T12:00:53.303Z,27.62
2022-09-09T12:03:44.670Z,27.69
2022-09-09T12:06:34.392Z,27.76
2022-09-09T12:09:28.190Z,27.81
2022-09-09T12:12:28.730Z,27.78
2022-09-09T12:15:28.982Z,27.72
2022-09-09T12:18:24.641Z,27.78
2022-09-09T12:21:20.032Z,27.76
2022-09-09T12:24:11.521Z,27.77
2022-09-09T12:27:08.709Z,27.77
2022-09-09T12:30:01.729Z,27.77
2022-09-09T12:32:50.570Z,27.76
2022-09-09T12:35:40.558Z,27.71
2022-09-09T12:38:35.013Z,27.72
2022-09-09T12:41:24.835Z,27.74
2022-09-09T12:44:13.242Z,27.76
2022-09-09T12:47:03.889Z,27.79
2022-09-09T12:49:52.900Z,27.79
2022-09-09T12:52:42.674Z,27.83
2022-09-09T12:55:34.591Z,27.80
2022-09-09T12:58:23.357Z,27.89
2022-09-09T13:01:23.796Z,27.91
2022-09-09T13:04:23.036Z,27.91
2022-09-09T13:07:12.595Z,27.89
2022-09-09T13:10:02.357Z,27.89
2022-09-09T13:12:51.031Z,27.90
2022-09-09T13:15:39.507Z,27.91
2022-09-09T13:18:30.175Z,27.96
2022-09-09T13:21:18.808Z,28.01
2022-09-09T13:24:08.587Z,28.03
2022-09-09T13:26:59.519Z,28.04
2022-09-09T13:29:55.927Z,28.04
2022-09-09T13:32:50.290Z,28.04
2022-09-09T13:35:48.556Z,28.03
2022-09-09T13:38:39.156Z,28.00
2022-09-09T13:41:33.638Z,27.99
2022-09-09T13:44:25.807Z,28.02
2022-09-09T13:47:21.462Z,28.04
2022-09-09T13:50:21.875Z,28.07
2022-09-09T13:53:10.310Z,28.05
2022-09-09T13:55:59.059Z,28.04
2022-09-09T13:58:47.443Z,28.02
2022-09-09T14:01:39.681Z,28.04
2022-09-09T14:04:28.105Z,28.05
2022-09-09T14:07:18.217Z,28.02
2022-09-09T14:10:07.453Z,27.99
2022-09-09T14:12:55.842Z,27.95
2022-09-09T14:15:44.463Z,27.97
2022-09-09T14:18:35.331Z,27.95
2022-09-09T14:21:23.874Z,27.94
2022-09-09T14:24:13.333Z,27.95
2022-09-09T14:27:01.774Z,27.97
2022-09-09T14:29:57.421Z,27.95
2022-09-09T14:32:46.009Z,27.95
2022-09-09T14:35:36.341Z,27.95
2022-09-09T14:38:27.917Z,27.96
2022-09-09T14:41:18.701Z,27.99
2022-09-09T14:44:07.115Z,28.01
2022-09-09T14:46:55.553Z,28.04
2022-09-09T14:49:46.572Z,28.06
2022-09-09T14:52:37.795Z,28.08
2022-09-09T14:55:26.260Z,28.12
2022-09-09T14:58:15.471Z,28.10
2022-09-09T15:01:07.789Z,28.09
2022-09-09T15:03:58.888Z,28.13
2022-09-09T15:06:49.180Z,28.18
2022-09-09T15:09:39.153Z,28.17
2022-09-09T15:12:29.308Z,28.16
2022-09-09T15:15:19.021Z,28.15
2022-09-09T15:18:07.466Z,28.19
2022-09-09T15:20:55.899Z,28.17
2022-09-09T15:23:45.184Z,28.17
2022-09-09T15:26:34.902Z,28.16
2022-09-09T15:29:23.346Z,28.17
2022-09-09T15:32:12.825Z,28.14
2022-09-09T15:35:02.455Z,28.13
2022-09-09T15:37:50.852Z,28.16
2022-09-09T15:40:39.303Z,28.14
2022-09-09T15:43:29.050Z,28.15
2022-09-09T15:46:33.190Z,28.12
2022-09-09T15:49:23.682Z,28.12
2022-09-09T15:52:13.354Z,28.14
2022-09-09T15:55:01.947Z,28.11
2022-09-09T15:57:50.399Z,28.14
2022-09-09T16:00:40.441Z,28.09
2022-09-09T16:03:28.887Z,28.08
2022-09-09T16:06:17.597Z,28.05
2022-09-09T16:09:08.013Z,28.04
2022-09-09T16:11:59.931Z,28.06
2022-09-09T16:14:48.542Z,28.09
2022-09-09T16:17:39.146Z,28.03
2022-09-09T16:20:27.577Z,28.03
2022-09-09T16:23:16.061Z,28.02
2022-09-09T16:26:05.912Z,28.02
2022-09-09T16:28:55.123Z,28.02
2022-09-09T16:31:44.069Z,28.05
2022-09-09T16:34:34.658Z,28.03
2022-09-09T16:37:23.210Z,28.02
2022-09-09T16:40:11.870Z,28.04
2022-09-09T16:43:00.352Z,28.02
2022-09-09T16:45:49.073Z,28.00
2022-09-09T16:48:37.824Z,28.00
2022-09-09T16:51:31.694Z,27.98
2022-09-09T16:54:20.816Z,27.99
2022-09-09T16:57:09.466Z,27.99
2022-09-09T17:00:00.287Z,27.99
2022-09-09T17:02:48.792Z,27.96
2022-09-09T17:05:42.284Z,27.99
2022-09-09T17:08:34.370Z,27.95
2022-09-09T17:11:24.272Z,27.98
2022-09-09T17:14:15.999Z,27.94
2022-09-09T17:17:19.317Z,27.97
2022-09-09T17:20:15.709Z,28.03
2022-09-09T17:23:04.161Z,28.03
2022-09-09T17:26:00.945Z,27.99
2022-09-09T17:28:49.512Z,28.01
2022-09-09T17:31:37.938Z,28.00
2022-09-09T17:34:26.481Z,28.01
2022-09-09T17:37:14.877Z,28.00
2022-09-09T17:40:03.891Z,27.99
2022-09-09T17:42:53.712Z,28.00
2022-09-09T17:45:42.119Z,28.01
2022-09-09T17:48:32.628Z,28.00
2022-09-09T17:51:25.297Z,28.02
2022-09-09T17:54:15.593Z,28.01
2022-09-09T17:57:04.119Z,28.00
2022-09-09T17:59:53.970Z,28.00
2022-09-09T18:02:44.894Z,27.98
2022-09-09T18:05:33.317Z,27.99
2022-09-09T18:08:24.137Z,28.00
2022-09-09T18:11:12.497Z,28.00
2022-09-09T18:14:04.281Z,27.98
2022-09-09T18:16:54.759Z,27.99
2022-09-09T18:19:43.214Z,27.99
2022-09-09T18:22:31.776Z,28.00
2022-09-09T18:25:20.193Z,28.02
2022-09-09T18:28:09.045Z,28.00
2022-09-09T18:30:57.724Z,27.99
2022-09-09T18:33:49.076Z,27.97
2022-09-09T18:36:39.430Z,27.98
2022-09-09T18:39:29.895Z,28.00
2022-09-09T18:42:18.398Z,28.01
2022-09-09T18:45:07.715Z,28.00
2022-09-09T18:47:56.769Z,28.00
2022-09-09T18:50:46.567Z,28.02
2022-09-09T18:53:35.696Z,28.03
2022-09-09T18:56:24.688Z,28.03
2022-09-09T18:59:14.314Z,28.01
2022-09-09T19:02:02.698Z,28.01
2022-09-09T19:04:51.208Z,27.99
2022-09-09T19:07:41.331Z,27.98
2022-09-09T19:10:31.472Z,27.98
2022-09-09T19:13:20.076Z,28.01
2022-09-09T19:16:10.227Z,28.01
2022-09-09T19:19:01.098Z,28.00
2022-09-09T19:21:50.017Z,28.01
2022-09-09T19:24:40.628Z,28.00
2022-09-09T19:27:29.086Z,28.00
2022-09-09T19:30:17.691Z,28.00
2022-09-09T19:33:06.730Z,28.00
2022-09-09T19:36:02.018Z,28.01
2022-09-09T19:38:50.552Z,28.01
2022-09-09T19:41:40.323Z,28.00
2022-09-09T19:44:28.864Z,28.00
2022-09-09T19:47:17.826Z,28.00
2022-09-09T19:50:08.759Z,28.00
2022-09-09T19:52:57.977Z,27.99
2022-09-09T19:55:50.795Z,27.98
2022-09-09T19:58:41.493Z,28.01
2022-09-09T20:01:37.972Z,28.02
2022-09-09T20:04:30.733Z,28.05
2022-09-09T20:07:19.783Z,28.02
2022-09-09T20:10:09.918Z,28.02
2022-09-09T20:13:00.386Z,28.01
2022-09-09T20:15:58.117Z,28.00
2022-09-09T20:18:48.615Z,28.00
2022-09-09T20:21:38.306Z,27.99
2022-09-09T20:24:26.795Z,28.00
2022-09-09T20:27:15.228Z,28.02
2022-09-09T20:30:03.689Z,27.99
2022-09-09T20:32:53.516Z,28.01
2022-09-09T20:35:42.058Z,28.01
2022-09-09T20:38:30.518Z,28.00
2022-09-09T20:41:21.647Z,28.00
2022-09-09T20:44:14.156Z,27.98
2022-09-09T20:47:07.074Z,28.00
2022-09-09T20:49:56.908Z,28.00
2022-09-09T20:52:45.357Z,28.01
2022-09-09T20:55:34.282Z,28.01
2022-09-09T20:58:22.686Z,28.02
2022-09-09T21:01:17.306Z,28.01
2022-09-09T21:04:06.076Z,28.02
2022-09-09T21:06:55.799Z,28.01
2022-09-09T21:09:44.287Z,28.00
2022-09-09T21:12:32.703Z,28.02
2022-09-09T21:15:21.158Z,28.03
2022-09-09T21:18:09.640Z,28.02
2022-09-09T21:20:58.602Z,28.00
2022-09-09T21:23:48.854Z,28.01
2022-09-09T21:26:37.240Z,28.00
2022-09-09T21:29:25.639Z,28.02
2022-09-09T21:32:14.035Z,28.00
2022-09-09T21:35:02.424Z,28.01
2022-09-09T21:37:50.808Z,28.01
2022-09-09T21:40:42.085Z,28.01
2022-09-09T21:43:30.471Z,28.01
2022-09-09T21:46:19.156Z,28.00
2022-09-09T21:49:09.641Z,27.99
2022-09-09T21:51:58.688Z,28.00
2022-09-09T21:54:47.123Z,28.01
2022-09-09T21:57:37.607Z,28.02
2022-09-09T22:00:26.280Z,28.02
2022-09-09T22:03:15.998Z,28.04
2022-09-09T22:06:06.484Z,28.02
2022-09-09T22:09:00.174Z,28.00
2022-09-09T22:11:48.561Z,28.03
2022-09-09T22:14:38.643Z,28.05
2022-09-09T22:17:27.344Z,28.03
2022-09-09T22:20:16.026Z,28.01
2022-09-09T22:23:06.989Z,28.02
2022-09-09T22:25:56.980Z,28.03
2022-09-09T22:28:45.371Z,28.02
2022-09-09T22:31:36.709Z,28.01
2022-09-09T22:34:28.257Z,28.04
2022-09-09T22:37:16.621Z,28.03
2022-09-09T22:40:06.000Z,28.02
2022-09-09T22:42:54.503Z,28.03
2022-09-09T22:45:44.172Z,28.01
2022-09-09T22:48:37.890Z,28.01
2022-09-09T22:51:26.332Z,28.02
2022-09-09T22:54:15.332Z,28.01
2022-09-09T22:57:07.481Z,28.00
2022-09-09T22:59:56.136Z,28.00
2022-09-09T23:02:44.555Z,27.99
2022-09-09T23:05:35.339Z,28.01
2022-09-09T23:08:24.876Z,28.01
2022-09-09T23:11:13.691Z,28.00
2022-09-09T23:14:03.965Z,28.01
2022-09-09T23:16:52.579Z,28.01
2022-09-09T23:19:41.552Z,28.02
2022-09-09T23:22:34.235Z,28.02
2022-09-09T23:25:22.818Z,27.98
2022-09-09T23:28:11.341Z,28.01
2022-09-09T23:30:59.906Z,28.02
2022-09-09T23:33:49.498Z,28.00
2022-09-09T23:36:39.187Z,28.00
2022-09-09T23:39:29.184Z,28.02
2022-09-09T23:42:17.757Z,28.02
2022-09-09T23:45:07.638Z,28.01
2022-09-09T23:47:56.003Z,28.01
2022-09-09T23:50:44.442Z,28.00
2022-09-09T23:53:32.981Z,28.04
2022-09-09T23:56:26.224Z,28.02
2022-09-09T23:59:14.669Z,28.00
